sensor_id;sensor_type;location;lat;lon;timestamp;temperature;humidity
3001;DHT22;1510;51.072;6.678;2023-04-03T00:00:31;-0.10;99.90
3001;DHT22;1510;51.072;6.678;2023-04-03T00:02:59;-0.10;99.90
3001;DHT22;1510;51.072;6.678;2023-04-03T00:05:26;-0.30;99.90
3001;DHT22;1510;51.072;6.678;2023-04-03T00:07:53;-0.30;99.90
3001;DHT22;1510;51.072;6.678;2023-04-03T00:10:20;-0.40;99.90
3001;DHT22;1510;51.072;6.678;2023-04-03T00:12:47;-0.50;99.90
3001;DHT22;1510;51.072;6.678;2023-04-03T00:15:15;-0.50;99.90
3001;DHT22;1510;51.072;6.678;2023-04-03T00:17:43;-0.60;99.90
3001;DHT22;1510;51.072;6.678;2023-04-03T00:20:12;-0.60;99.90
3001;DHT22;1510;51.072;6.678;2023-04-03T00:22:39;-0.60;99.90
3001;DHT22;1510;51.072;6.678;2023-04-03T00:25:07;-0.80;99.90
3001;DHT22;1510;51.072;6.678;2023-04-03T00:27:36;-0.80;99.90
3001;DHT22;1510;51.072;6.678;2023-04-03T00:30:06;-0.80;99.90
3001;DHT22;1510;51.072;6.678;2023-04-03T00:32:34;-0.90;99.90
3001;DHT22;1510;51.072;6.678;2023-04-03T00:35:01;-0.90;99.90
3001;DHT22;1510;51.072;6.678;2023-04-03T00:37:29;-0.90;99.90
3001;DHT22;1510;51.072;6.678;2023-04-03T00:39:56;-0.80;99.90
3001;DHT22;1510;51.072;6.678;2023-04-03T00:42:23;-0.80;99.90
3001;DHT22;1510;51.072;6.678;2023-04-03T00:45:22;-0.70;99.90
3001;DHT22;1510;51.072;6.678;2023-04-03T00:47:49;-0.60;99.90
3001;DHT22;1510;51.072;6.678;2023-04-03T00:50:17;-0.50;99.90
3001;DHT22;1510;51.072;6.678;2023-04-03T00:52:46;-0.50;99.90
3001;DHT22;1510;51.072;6.678;2023-04-03T00:55:17;-0.60;99.90
3001;DHT22;1510;51.072;6.678;2023-04-03T00:57:51;-0.70;99.90
3001;DHT22;1510;51.072;6.678;2023-04-03T01:00:21;-0.70;99.90
3001;DHT22;1510;51.072;6.678;2023-04-03T01:02:49;-0.90;99.90
3001;DHT22;1510;51.072;6.678;2023-04-03T01:05:17;-0.80;99.90
3001;DHT22;1510;51.072;6.678;2023-04-03T01:07:47;-1.00;99.90
3001;DHT22;1510;51.072;6.678;2023-04-03T01:10:17;-0.90;99.90
3001;DHT22;1510;51.072;6.678;2023-04-03T01:12:46;-1.00;99.90
3001;DHT22;1510;51.072;6.678;2023-04-03T01:15:15;-1.00;99.90
3001;DHT22;1510;51.072;6.678;2023-04-03T01:17:44;-0.80;99.90
3001;DHT22;1510;51.072;6.678;2023-04-03T01:23:20;-0.80;99.90
3001;DHT22;1510;51.072;6.678;2023-04-03T01:25:50;-1.00;99.90
3001;DHT22;1510;51.072;6.678;2023-04-03T01:28:21;-1.00;99.90
3001;DHT22;1510;51.072;6.678;2023-04-03T01:30:53;-1.10;99.90
3001;DHT22;1510;51.072;6.678;2023-04-03T01:33:24;-1.20;99.90
3001;DHT22;1510;51.072;6.678;2023-04-03T01:35:51;-1.20;99.90
3001;DHT22;1510;51.072;6.678;2023-04-03T01:38:23;-1.30;99.90
3001;DHT22;1510;51.072;6.678;2023-04-03T01:40:51;-1.30;99.90
3001;DHT22;1510;51.072;6.678;2023-04-03T01:43:20;-1.30;99.90
3001;DHT22;1510;51.072;6.678;2023-04-03T01:45:47;-1.40;99.90
3001;DHT22;1510;51.072;6.678;2023-04-03T01:48:30;-1.40;99.90
3001;DHT22;1510;51.072;6.678;2023-04-03T01:50:57;-1.50;99.90
3001;DHT22;1510;51.072;6.678;2023-04-03T01:53:24;-1.40;99.90
3001;DHT22;1510;51.072;6.678;2023-04-03T01:55:54;-1.40;99.90
3001;DHT22;1510;51.072;6.678;2023-04-03T01:58:22;-1.30;99.90
3001;DHT22;1510;51.072;6.678;2023-04-03T02:00:51;-1.30;99.90
3001;DHT22;1510;51.072;6.678;2023-04-03T02:03:23;-1.30;99.90
3001;DHT22;1510;51.072;6.678;2023-04-03T02:05:58;-1.20;99.90
3001;DHT22;1510;51.072;6.678;2023-04-03T02:08:25;-1.10;99.90
3001;DHT22;1510;51.072;6.678;2023-04-03T02:10:54;-1.20;99.90
3001;DHT22;1510;51.072;6.678;2023-04-03T02:13:21;-1.10;99.90
3001;DHT22;1510;51.072;6.678;2023-04-03T02:15:48;-1.10;99.90
3001;DHT22;1510;51.072;6.678;2023-04-03T02:18:18;-1.10;99.90
3001;DHT22;1510;51.072;6.678;2023-04-03T02:20:48;-1.20;99.90
3001;DHT22;1510;51.072;6.678;2023-04-03T02:23:34;-1.30;99.90
3001;DHT22;1510;51.072;6.678;2023-04-03T02:26:09;-1.40;99.90
3001;DHT22;1510;51.072;6.678;2023-04-03T02:28:41;-1.50;99.90
3001;DHT22;1510;51.072;6.678;2023-04-03T02:31:10;-1.50;99.90
3001;DHT22;1510;51.072;6.678;2023-04-03T02:33:37;-1.60;99.90
3001;DHT22;1510;51.072;6.678;2023-04-03T02:36:08;-1.60;99.90
3001;DHT22;1510;51.072;6.678;2023-04-03T02:38:43;-1.70;99.90
3001;DHT22;1510;51.072;6.678;2023-04-03T02:41:11;-1.70;99.90
3001;DHT22;1510;51.072;6.678;2023-04-03T02:43:43;-1.70;99.90
3001;DHT22;1510;51.072;6.678;2023-04-03T02:46:12;-1.80;99.90
3001;DHT22;1510;51.072;6.678;2023-04-03T02:48:40;-1.70;99.90
3001;DHT22;1510;51.072;6.678;2023-04-03T02:51:15;-1.70;99.90
3001;DHT22;1510;51.072;6.678;2023-04-03T02:53:44;-1.70;99.90
3001;DHT22;1510;51.072;6.678;2023-04-03T02:56:16;-1.50;99.90
3001;DHT22;1510;51.072;6.678;2023-04-03T02:58:46;-1.50;99.90
3001;DHT22;1510;51.072;6.678;2023-04-03T03:01:13;-1.30;99.90
3001;DHT22;1510;51.072;6.678;2023-04-03T03:03:40;-1.20;99.90
3001;DHT22;1510;51.072;6.678;2023-04-03T03:06:09;-1.00;99.90
3001;DHT22;1510;51.072;6.678;2023-04-03T03:08:39;-1.00;99.90
3001;DHT22;1510;51.072;6.678;2023-04-03T03:11:09;-1.10;99.90
3001;DHT22;1510;51.072;6.678;2023-04-03T03:13:39;-1.10;99.90
3001;DHT22;1510;51.072;6.678;2023-04-03T03:16:15;-1.20;99.90
3001;DHT22;1510;51.072;6.678;2023-04-03T03:18:48;-1.20;99.90
3001;DHT22;1510;51.072;6.678;2023-04-03T03:21:17;-1.20;99.90
3001;DHT22;1510;51.072;6.678;2023-04-03T03:23:46;-1.10;99.90
3001;DHT22;1510;51.072;6.678;2023-04-03T03:26:18;-1.20;99.90
3001;DHT22;1510;51.072;6.678;2023-04-03T03:28:46;-0.90;99.90
3001;DHT22;1510;51.072;6.678;2023-04-03T03:31:19;-0.70;99.90
3001;DHT22;1510;51.072;6.678;2023-04-03T03:33:47;-0.50;99.90
3001;DHT22;1510;51.072;6.678;2023-04-03T03:36:15;-0.30;99.90
3001;DHT22;1510;51.072;6.678;2023-04-03T03:38:44;-0.10;99.90
3001;DHT22;1510;51.072;6.678;2023-04-03T03:41:18;-0.10;99.90
3001;DHT22;1510;51.072;6.678;2023-04-03T03:43:57;-0.10;99.90
3001;DHT22;1510;51.072;6.678;2023-04-03T03:46:24;-0.10;99.90
3001;DHT22;1510;51.072;6.678;2023-04-03T03:48:55;-0.20;99.90
3001;DHT22;1510;51.072;6.678;2023-04-03T03:51:22;-0.20;99.90
3001;DHT22;1510;51.072;6.678;2023-04-03T03:53:52;-0.10;99.90
3001;DHT22;1510;51.072;6.678;2023-04-03T03:56:20;-0.10;99.90
3001;DHT22;1510;51.072;6.678;2023-04-03T03:58:47;0.00;99.90
3001;DHT22;1510;51.072;6.678;2023-04-03T04:01:16;-0.10;99.90
3001;DHT22;1510;51.072;6.678;2023-04-03T04:03:44;-0.20;99.90
3001;DHT22;1510;51.072;6.678;2023-04-03T04:06:11;-0.20;99.90
3001;DHT22;1510;51.072;6.678;2023-04-03T04:08:41;-0.20;99.90
3001;DHT22;1510;51.072;6.678;2023-04-03T04:11:16;-0.20;99.90
3001;DHT22;1510;51.072;6.678;2023-04-03T04:13:50;-0.20;99.90
3001;DHT22;1510;51.072;6.678;2023-04-03T04:16:18;-0.40;99.90
3001;DHT22;1510;51.072;6.678;2023-04-03T04:18:45;-0.40;99.90
3001;DHT22;1510;51.072;6.678;2023-04-03T04:21:13;-0.60;99.90
3001;DHT22;1510;51.072;6.678;2023-04-03T04:23:42;-0.60;99.90
3001;DHT22;1510;51.072;6.678;2023-04-03T04:26:10;-0.60;99.90
3001;DHT22;1510;51.072;6.678;2023-04-03T04:28:41;-0.50;99.90
3001;DHT22;1510;51.072;6.678;2023-04-03T04:31:12;-0.60;99.90
3001;DHT22;1510;51.072;6.678;2023-04-03T04:33:39;-0.60;99.90
3001;DHT22;1510;51.072;6.678;2023-04-03T04:36:09;-0.80;99.90
3001;DHT22;1510;51.072;6.678;2023-04-03T04:38:39;-1.00;99.90
3001;DHT22;1510;51.072;6.678;2023-04-03T04:41:09;-1.00;99.90
3001;DHT22;1510;51.072;6.678;2023-04-03T04:43:37;-1.20;99.90
3001;DHT22;1510;51.072;6.678;2023-04-03T04:46:06;-1.20;99.90
3001;DHT22;1510;51.072;6.678;2023-04-03T04:48:36;-1.20;99.90
3001;DHT22;1510;51.072;6.678;2023-04-03T04:51:04;-1.40;99.90
3001;DHT22;1510;51.072;6.678;2023-04-03T04:53:31;-1.30;99.90
3001;DHT22;1510;51.072;6.678;2023-04-03T04:55:58;-1.20;99.90
3001;DHT22;1510;51.072;6.678;2023-04-03T04:58:26;-1.30;99.90
3001;DHT22;1510;51.072;6.678;2023-04-03T05:00:59;-1.40;99.90
3001;DHT22;1510;51.072;6.678;2023-04-03T05:03:31;-1.50;99.90
3001;DHT22;1510;51.072;6.678;2023-04-03T05:06:01;-1.60;99.90
3001;DHT22;1510;51.072;6.678;2023-04-03T05:08:33;-1.60;99.90
3001;DHT22;1510;51.072;6.678;2023-04-03T05:11:09;-1.60;99.90
3001;DHT22;1510;51.072;6.678;2023-04-03T05:13:36;-1.70;99.90
3001;DHT22;1510;51.072;6.678;2023-04-03T05:16:04;-1.60;99.90
3001;DHT22;1510;51.072;6.678;2023-04-03T05:18:31;-1.50;99.90
3001;DHT22;1510;51.072;6.678;2023-04-03T05:21:02;-1.50;99.90
3001;DHT22;1510;51.072;6.678;2023-04-03T05:23:30;-1.70;99.90
3001;DHT22;1510;51.072;6.678;2023-04-03T05:25:57;-1.70;99.90
3001;DHT22;1510;51.072;6.678;2023-04-03T05:28:24;-1.70;99.90
3001;DHT22;1510;51.072;6.678;2023-04-03T05:30:54;-1.70;99.90
3001;DHT22;1510;51.072;6.678;2023-04-03T05:33:22;-1.60;99.90
3001;DHT22;1510;51.072;6.678;2023-04-03T05:35:53;-1.70;99.90
3001;DHT22;1510;51.072;6.678;2023-04-03T05:38:21;-1.70;99.90
3001;DHT22;1510;51.072;6.678;2023-04-03T05:40:48;-1.60;99.90
3001;DHT22;1510;51.072;6.678;2023-04-03T05:43:15;-1.60;99.90
3001;DHT22;1510;51.072;6.678;2023-04-03T05:45:42;-1.40;99.90
3001;DHT22;1510;51.072;6.678;2023-04-03T05:48:09;-1.30;99.90
3001;DHT22;1510;51.072;6.678;2023-04-03T05:50:37;-1.20;99.90
3001;DHT22;1510;51.072;6.678;2023-04-03T05:53:07;-1.20;99.90
3001;DHT22;1510;51.072;6.678;2023-04-03T05:55:40;-1.20;99.90
3001;DHT22;1510;51.072;6.678;2023-04-03T05:58:07;-1.20;99.90
3001;DHT22;1510;51.072;6.678;2023-04-03T06:00:34;-1.10;99.90
3001;DHT22;1510;51.072;6.678;2023-04-03T06:03:04;-1.00;99.90
3001;DHT22;1510;51.072;6.678;2023-04-03T06:05:31;-0.90;99.90
3001;DHT22;1510;51.072;6.678;2023-04-03T06:07:58;-0.70;99.90
3001;DHT22;1510;51.072;6.678;2023-04-03T06:10:26;-0.50;99.90
3001;DHT22;1510;51.072;6.678;2023-04-03T06:12:55;-0.50;99.90
3001;DHT22;1510;51.072;6.678;2023-04-03T06:15:22;-0.40;99.90
3001;DHT22;1510;51.072;6.678;2023-04-03T06:17:50;-0.40;99.90
3001;DHT22;1510;51.072;6.678;2023-04-03T06:20:17;-0.30;99.90
3001;DHT22;1510;51.072;6.678;2023-04-03T06:22:43;-0.20;99.90
3001;DHT22;1510;51.072;6.678;2023-04-03T06:25:11;-0.10;99.90
3001;DHT22;1510;51.072;6.678;2023-04-03T06:27:38;0.00;99.90
3001;DHT22;1510;51.072;6.678;2023-04-03T06:30:08;0.10;99.90
3001;DHT22;1510;51.072;6.678;2023-04-03T06:32:35;0.20;99.90
3001;DHT22;1510;51.072;6.678;2023-04-03T06:35:02;0.20;99.90
3001;DHT22;1510;51.072;6.678;2023-04-03T06:37:29;0.30;99.90
3001;DHT22;1510;51.072;6.678;2023-04-03T06:39:56;0.40;99.90
3001;DHT22;1510;51.072;6.678;2023-04-03T06:42:23;0.50;99.90
3001;DHT22;1510;51.072;6.678;2023-04-03T06:44:50;0.60;99.90
3001;DHT22;1510;51.072;6.678;2023-04-03T06:47:18;0.80;99.90
3001;DHT22;1510;51.072;6.678;2023-04-03T06:49:45;1.10;99.90
3001;DHT22;1510;51.072;6.678;2023-04-03T06:52:13;1.20;99.90
3001;DHT22;1510;51.072;6.678;2023-04-03T06:54:40;1.50;99.90
3001;DHT22;1510;51.072;6.678;2023-04-03T06:57:07;1.60;99.90
3001;DHT22;1510;51.072;6.678;2023-04-03T06:59:34;1.70;99.90
3001;DHT22;1510;51.072;6.678;2023-04-03T07:02:02;1.80;99.90
3001;DHT22;1510;51.072;6.678;2023-04-03T07:04:30;2.00;99.90
3001;DHT22;1510;51.072;6.678;2023-04-03T07:06:57;2.10;99.90
3001;DHT22;1510;51.072;6.678;2023-04-03T07:09:23;2.30;99.90
3001;DHT22;1510;51.072;6.678;2023-04-03T07:11:50;2.50;99.90
3001;DHT22;1510;51.072;6.678;2023-04-03T07:14:17;2.50;99.90
3001;DHT22;1510;51.072;6.678;2023-04-03T07:16:44;2.60;99.90
3001;DHT22;1510;51.072;6.678;2023-04-03T07:19:11;2.70;99.90
3001;DHT22;1510;51.072;6.678;2023-04-03T07:21:42;2.80;99.90
3001;DHT22;1510;51.072;6.678;2023-04-03T07:24:09;2.90;99.90
3001;DHT22;1510;51.072;6.678;2023-04-03T07:26:36;2.90;99.90
3001;DHT22;1510;51.072;6.678;2023-04-03T07:29:06;3.00;99.90
3001;DHT22;1510;51.072;6.678;2023-04-03T07:39:26;3.40;99.90
3001;DHT22;1510;51.072;6.678;2023-04-03T07:41:57;3.50;99.90
3001;DHT22;1510;51.072;6.678;2023-04-03T07:44:50;3.60;99.90
3001;DHT22;1510;51.072;6.678;2023-04-03T07:47:37;3.80;99.90
3001;DHT22;1510;51.072;6.678;2023-04-03T07:50:08;3.80;99.40
3001;DHT22;1510;51.072;6.678;2023-04-03T07:52:41;3.90;97.90
3001;DHT22;1510;51.072;6.678;2023-04-03T07:55:10;4.00;97.20
3001;DHT22;1510;51.072;6.678;2023-04-03T07:57:37;4.00;95.70
3001;DHT22;1510;51.072;6.678;2023-04-03T08:00:14;4.20;95.80
3001;DHT22;1510;51.072;6.678;2023-04-03T08:02:43;4.30;95.90
3001;DHT22;1510;51.072;6.678;2023-04-03T08:05:16;4.60;94.80
3001;DHT22;1510;51.072;6.678;2023-04-03T08:07:43;4.90;93.20
3001;DHT22;1510;51.072;6.678;2023-04-03T08:10:12;5.20;92.90
3001;DHT22;1510;51.072;6.678;2023-04-03T08:12:39;5.50;92.60
3001;DHT22;1510;51.072;6.678;2023-04-03T08:15:06;5.60;90.70
3001;DHT22;1510;51.072;6.678;2023-04-03T08:17:34;5.80;90.60
3001;DHT22;1510;51.072;6.678;2023-04-03T08:20:01;6.00;90.70
3001;DHT22;1510;51.072;6.678;2023-04-03T08:22:29;6.10;89.30
3001;DHT22;1510;51.072;6.678;2023-04-03T08:24:57;6.30;78.30
3001;DHT22;1510;51.072;6.678;2023-04-03T08:27:28;6.40;74.90
3001;DHT22;1510;51.072;6.678;2023-04-03T08:29:57;6.50;69.60
3001;DHT22;1510;51.072;6.678;2023-04-03T08:32:24;6.40;67.00
3001;DHT22;1510;51.072;6.678;2023-04-03T08:34:52;6.70;72.70
3001;DHT22;1510;51.072;6.678;2023-04-03T08:37:20;7.00;73.20
3001;DHT22;1510;51.072;6.678;2023-04-03T08:39:51;6.90;61.10
3001;DHT22;1510;51.072;6.678;2023-04-03T08:42:33;6.90;60.40
3001;DHT22;1510;51.072;6.678;2023-04-03T08:45:09;7.00;60.80
3001;DHT22;1510;51.072;6.678;2023-04-03T08:47:40;7.30;65.90
3001;DHT22;1510;51.072;6.678;2023-04-03T08:50:12;7.40;66.50
3001;DHT22;1510;51.072;6.678;2023-04-03T08:52:43;7.30;59.60
3001;DHT22;1510;51.072;6.678;2023-04-03T08:55:20;7.80;64.40
3001;DHT22;1510;51.072;6.678;2023-04-03T08:57:53;7.90;57.20
3001;DHT22;1510;51.072;6.678;2023-04-03T09:00:25;8.00;52.40
3001;DHT22;1510;51.072;6.678;2023-04-03T09:02:58;8.10;54.80
3001;DHT22;1510;51.072;6.678;2023-04-03T09:05:39;8.20;51.20
3001;DHT22;1510;51.072;6.678;2023-04-03T09:08:22;8.00;41.70
3001;DHT22;1510;51.072;6.678;2023-04-03T09:11:08;8.00;39.20
3001;DHT22;1510;51.072;6.678;2023-04-03T09:13:59;8.20;40.10
3001;DHT22;1510;51.072;6.678;2023-04-03T09:16:55;8.10;34.60
3001;DHT22;1510;51.072;6.678;2023-04-03T09:19:53;8.30;36.30
3001;DHT22;1510;51.072;6.678;2023-04-03T09:22:25;8.70;36.40
3001;DHT22;1510;51.072;6.678;2023-04-03T09:24:57;8.60;28.10
3001;DHT22;1510;51.072;6.678;2023-04-03T09:27:26;9.20;32.70
3001;DHT22;1510;51.072;6.678;2023-04-03T09:29:55;9.10;30.40
3001;DHT22;1510;51.072;6.678;2023-04-03T09:32:27;9.30;28.00
3001;DHT22;1510;51.072;6.678;2023-04-03T09:34:57;9.50;29.80
3001;DHT22;1510;51.072;6.678;2023-04-03T09:37:37;9.30;27.30
3001;DHT22;1510;51.072;6.678;2023-04-03T09:40:05;9.20;27.20
3001;DHT22;1510;51.072;6.678;2023-04-03T09:42:45;9.50;29.40
3001;DHT22;1510;51.072;6.678;2023-04-03T09:45:25;9.40;28.40
3001;DHT22;1510;51.072;6.678;2023-04-03T09:48:06;9.60;27.50
3001;DHT22;1510;51.072;6.678;2023-04-03T09:50:34;9.80;29.60
3001;DHT22;1510;51.072;6.678;2023-04-03T09:53:06;10.10;27.90
3001;DHT22;1510;51.072;6.678;2023-04-03T09:55:42;9.80;27.60
3001;DHT22;1510;51.072;6.678;2023-04-03T09:58:24;10.20;28.30
3001;DHT22;1510;51.072;6.678;2023-04-03T10:00:56;9.90;27.70
3001;DHT22;1510;51.072;6.678;2023-04-03T10:03:28;10.00;23.00
3001;DHT22;1510;51.072;6.678;2023-04-03T10:05:57;10.40;21.80
3001;DHT22;1510;51.072;6.678;2023-04-03T10:08:27;10.50;23.90
3001;DHT22;1510;51.072;6.678;2023-04-03T10:11:15;10.40;23.40
3001;DHT22;1510;51.072;6.678;2023-04-03T10:13:52;10.70;27.10
3001;DHT22;1510;51.072;6.678;2023-04-03T10:16:25;10.70;20.30
3001;DHT22;1510;51.072;6.678;2023-04-03T10:19:20;10.70;23.70
3001;DHT22;1510;51.072;6.678;2023-04-03T10:21:57;11.00;22.40
3001;DHT22;1510;51.072;6.678;2023-04-03T10:24:30;11.20;20.70
3001;DHT22;1510;51.072;6.678;2023-04-03T10:27:05;11.10;21.70
3001;DHT22;1510;51.072;6.678;2023-04-03T10:29:39;11.50;24.90
3001;DHT22;1510;51.072;6.678;2023-04-03T10:32:21;11.20;23.50
3001;DHT22;1510;51.072;6.678;2023-04-03T10:34:55;11.20;24.00
3001;DHT22;1510;51.072;6.678;2023-04-03T10:37:29;10.90;15.20
3001;DHT22;1510;51.072;6.678;2023-04-03T10:40:10;11.00;16.30
3001;DHT22;1510;51.072;6.678;2023-04-03T10:42:53;11.20;13.40
3001;DHT22;1510;51.072;6.678;2023-04-03T10:45:27;11.30;15.30
3001;DHT22;1510;51.072;6.678;2023-04-03T10:48:04;12.30;21.10
3001;DHT22;1510;51.072;6.678;2023-04-03T10:50:39;12.50;14.30
3001;DHT22;1510;51.072;6.678;2023-04-03T10:53:17;12.10;14.80
3001;DHT22;1510;51.072;6.678;2023-04-03T10:55:53;12.10;14.10
3001;DHT22;1510;51.072;6.678;2023-04-03T10:58:28;12.70;14.40
3001;DHT22;1510;51.072;6.678;2023-04-03T11:01:01;13.30;11.00
3001;DHT22;1510;51.072;6.678;2023-04-03T11:03:34;13.20;7.40
3001;DHT22;1510;51.072;6.678;2023-04-03T11:06:05;12.60;6.90
3001;DHT22;1510;51.072;6.678;2023-04-03T11:08:35;12.50;7.10
3001;DHT22;1510;51.072;6.678;2023-04-03T11:11:08;13.20;8.70
3001;DHT22;1510;51.072;6.678;2023-04-03T11:13:38;13.10;5.60
3001;DHT22;1510;51.072;6.678;2023-04-03T11:16:06;13.20;9.80
3001;DHT22;1510;51.072;6.678;2023-04-03T11:18:41;13.20;4.60
3001;DHT22;1510;51.072;6.678;2023-04-03T11:21:14;14.30;5.20
3001;DHT22;1510;51.072;6.678;2023-04-03T11:23:45;13.60;2.40
3001;DHT22;1510;51.072;6.678;2023-04-03T11:26:15;14.20;2.00
3001;DHT22;1510;51.072;6.678;2023-04-03T11:28:42;14.90;1.00
3001;DHT22;1510;51.072;6.678;2023-04-03T11:31:19;15.60;1.00
3001;DHT22;1510;51.072;6.678;2023-04-03T11:34:08;15.50;1.00
3001;DHT22;1510;51.072;6.678;2023-04-03T11:36:40;15.50;1.00
3001;DHT22;1510;51.072;6.678;2023-04-03T11:39:16;14.60;1.00
3001;DHT22;1510;51.072;6.678;2023-04-03T11:41:44;14.30;1.00
3001;DHT22;1510;51.072;6.678;2023-04-03T11:44:29;14.40;1.00
3001;DHT22;1510;51.072;6.678;2023-04-03T11:46:58;14.40;1.00
3001;DHT22;1510;51.072;6.678;2023-04-03T11:49:54;14.30;1.00
3001;DHT22;1510;51.072;6.678;2023-04-03T11:52:56;13.70;1.00
3001;DHT22;1510;51.072;6.678;2023-04-03T11:56:00;14.20;1.00
3001;DHT22;1510;51.072;6.678;2023-04-03T11:58:29;14.10;1.00
3001;DHT22;1510;51.072;6.678;2023-04-03T12:01:08;14.40;1.00
3001;DHT22;1510;51.072;6.678;2023-04-03T12:04:06;15.30;1.00
3001;DHT22;1510;51.072;6.678;2023-04-03T12:12:39;16.30;1.00
3001;DHT22;1510;51.072;6.678;2023-04-03T12:21:18;14.50;1.00
3001;DHT22;1510;51.072;6.678;2023-04-03T12:24:00;14.60;1.00
3001;DHT22;1510;51.072;6.678;2023-04-03T12:26:31;14.60;1.00
3001;DHT22;1510;51.072;6.678;2023-04-03T12:29:02;14.90;1.00
3001;DHT22;1510;51.072;6.678;2023-04-03T12:31:42;15.20;1.00
3001;DHT22;1510;51.072;6.678;2023-04-03T12:34:25;14.70;1.00
3001;DHT22;1510;51.072;6.678;2023-04-03T12:36:59;15.10;1.00
3001;DHT22;1510;51.072;6.678;2023-04-03T12:39:51;16.00;1.00
3001;DHT22;1510;51.072;6.678;2023-04-03T12:42:30;16.20;1.00
3001;DHT22;1510;51.072;6.678;2023-04-03T12:45:09;14.90;1.00
3001;DHT22;1510;51.072;6.678;2023-04-03T12:47:43;15.40;1.00
3001;DHT22;1510;51.072;6.678;2023-04-03T12:50:22;15.60;1.00
3001;DHT22;1510;51.072;6.678;2023-04-03T12:52:57;16.00;1.00
3001;DHT22;1510;51.072;6.678;2023-04-03T12:55:28;14.90;1.00
3001;DHT22;1510;51.072;6.678;2023-04-03T12:57:55;14.70;1.00
3001;DHT22;1510;51.072;6.678;2023-04-03T13:00:33;14.80;1.00
3001;DHT22;1510;51.072;6.678;2023-04-03T13:03:01;15.10;1.00
3001;DHT22;1510;51.072;6.678;2023-04-03T13:05:30;15.90;1.00
3001;DHT22;1510;51.072;6.678;2023-04-03T13:08:00;16.00;1.00
3001;DHT22;1510;51.072;6.678;2023-04-03T13:10:32;15.90;1.00
3001;DHT22;1510;51.072;6.678;2023-04-03T13:13:09;15.80;1.00
3001;DHT22;1510;51.072;6.678;2023-04-03T13:15:43;15.90;1.00
3001;DHT22;1510;51.072;6.678;2023-04-03T13:18:22;15.30;1.00
3001;DHT22;1510;51.072;6.678;2023-04-03T13:20:50;15.20;1.00
3001;DHT22;1510;51.072;6.678;2023-04-03T13:23:18;15.30;1.00
3001;DHT22;1510;51.072;6.678;2023-04-03T13:25:49;15.10;1.00
3001;DHT22;1510;51.072;6.678;2023-04-03T13:28:26;14.70;1.00
3001;DHT22;1510;51.072;6.678;2023-04-03T13:31:08;14.50;1.00
3001;DHT22;1510;51.072;6.678;2023-04-03T13:33:37;15.30;1.00
3001;DHT22;1510;51.072;6.678;2023-04-03T13:36:07;16.20;1.00
3001;DHT22;1510;51.072;6.678;2023-04-03T13:38:35;16.30;1.00
3001;DHT22;1510;51.072;6.678;2023-04-03T13:41:21;16.10;1.00
3001;DHT22;1510;51.072;6.678;2023-04-03T13:43:50;15.70;1.00
3001;DHT22;1510;51.072;6.678;2023-04-03T13:46:24;16.00;1.00
3001;DHT22;1510;51.072;6.678;2023-04-03T13:48:53;15.40;1.00
3001;DHT22;1510;51.072;6.678;2023-04-03T13:51:23;15.30;1.00
3001;DHT22;1510;51.072;6.678;2023-04-03T13:53:52;14.50;1.00
3001;DHT22;1510;51.072;6.678;2023-04-03T13:56:30;14.30;1.00
3001;DHT22;1510;51.072;6.678;2023-04-03T13:59:02;14.50;1.00
3001;DHT22;1510;51.072;6.678;2023-04-03T14:01:50;14.80;1.00
3001;DHT22;1510;51.072;6.678;2023-04-03T14:04:22;14.80;1.00
3001;DHT22;1510;51.072;6.678;2023-04-03T14:06:50;15.00;1.00
3001;DHT22;1510;51.072;6.678;2023-04-03T14:09:18;14.80;1.00
3001;DHT22;1510;51.072;6.678;2023-04-03T14:11:48;15.00;1.00
3001;DHT22;1510;51.072;6.678;2023-04-03T14:14:19;14.60;1.00
3001;DHT22;1510;51.072;6.678;2023-04-03T14:16:52;14.30;1.00
3001;DHT22;1510;51.072;6.678;2023-04-03T14:19:27;14.70;1.00
3001;DHT22;1510;51.072;6.678;2023-04-03T14:21:56;14.80;1.00
3001;DHT22;1510;51.072;6.678;2023-04-03T14:24:24;14.20;1.00
3001;DHT22;1510;51.072;6.678;2023-04-03T14:26:55;14.40;1.00
3001;DHT22;1510;51.072;6.678;2023-04-03T14:29:22;14.60;1.00
3001;DHT22;1510;51.072;6.678;2023-04-03T14:31:50;14.60;1.00
3001;DHT22;1510;51.072;6.678;2023-04-03T14:34:17;14.40;1.00
3001;DHT22;1510;51.072;6.678;2023-04-03T14:36:44;14.60;1.00
3001;DHT22;1510;51.072;6.678;2023-04-03T14:39:17;14.70;1.00
3001;DHT22;1510;51.072;6.678;2023-04-03T14:41:46;14.70;1.00
3001;DHT22;1510;51.072;6.678;2023-04-03T14:44:15;15.30;1.00
3001;DHT22;1510;51.072;6.678;2023-04-03T14:46:43;15.30;1.00
3001;DHT22;1510;51.072;6.678;2023-04-03T14:49:14;15.20;1.00
3001;DHT22;1510;51.072;6.678;2023-04-03T14:51:41;14.80;1.00
3001;DHT22;1510;51.072;6.678;2023-04-03T14:54:13;14.60;1.00
3001;DHT22;1510;51.072;6.678;2023-04-03T14:56:42;14.50;1.00
3001;DHT22;1510;51.072;6.678;2023-04-03T14:59:12;14.30;1.00
3001;DHT22;1510;51.072;6.678;2023-04-03T15:01:43;14.80;1.00
3001;DHT22;1510;51.072;6.678;2023-04-03T15:04:13;15.40;1.00
3001;DHT22;1510;51.072;6.678;2023-04-03T15:06:44;15.20;1.00
3001;DHT22;1510;51.072;6.678;2023-04-03T15:09:19;16.00;1.00
3001;DHT22;1510;51.072;6.678;2023-04-03T15:11:47;15.50;1.00
3001;DHT22;1510;51.072;6.678;2023-04-03T15:14:13;15.60;1.00
3001;DHT22;1510;51.072;6.678;2023-04-03T15:16:42;15.10;1.00
3001;DHT22;1510;51.072;6.678;2023-04-03T15:19:11;15.40;1.00
3001;DHT22;1510;51.072;6.678;2023-04-03T15:21:40;15.90;1.00
3001;DHT22;1510;51.072;6.678;2023-04-03T15:24:08;16.00;1.00
3001;DHT22;1510;51.072;6.678;2023-04-03T15:26:35;15.80;1.00
3001;DHT22;1510;51.072;6.678;2023-04-03T15:29:04;15.20;1.00
3001;DHT22;1510;51.072;6.678;2023-04-03T15:31:31;15.50;1.00
3001;DHT22;1510;51.072;6.678;2023-04-03T15:33:59;14.60;1.00
3001;DHT22;1510;51.072;6.678;2023-04-03T15:36:26;14.30;1.00
3001;DHT22;1510;51.072;6.678;2023-04-03T15:38:53;14.00;1.00
3001;DHT22;1510;51.072;6.678;2023-04-03T15:41:20;14.30;1.00
3001;DHT22;1510;51.072;6.678;2023-04-03T15:43:47;14.60;1.00
3001;DHT22;1510;51.072;6.678;2023-04-03T15:46:14;14.30;1.00
3001;DHT22;1510;51.072;6.678;2023-04-03T15:48:41;13.60;1.00
3001;DHT22;1510;51.072;6.678;2023-04-03T15:51:09;13.20;1.00
3001;DHT22;1510;51.072;6.678;2023-04-03T15:53:36;12.90;1.00
3001;DHT22;1510;51.072;6.678;2023-04-03T15:56:03;12.90;1.00
3001;DHT22;1510;51.072;6.678;2023-04-03T15:58:31;12.90;1.00
3001;DHT22;1510;51.072;6.678;2023-04-03T16:00:58;12.90;1.00
3001;DHT22;1510;51.072;6.678;2023-04-03T16:03:25;13.40;1.00
3001;DHT22;1510;51.072;6.678;2023-04-03T16:05:52;13.20;1.00
3001;DHT22;1510;51.072;6.678;2023-04-03T16:08:20;12.80;1.00
3001;DHT22;1510;51.072;6.678;2023-04-03T16:10:47;13.40;1.00
3001;DHT22;1510;51.072;6.678;2023-04-03T16:13:15;12.80;1.00
3001;DHT22;1510;51.072;6.678;2023-04-03T16:15:42;12.70;1.00
3001;DHT22;1510;51.072;6.678;2023-04-03T16:18:09;12.90;1.00
3001;DHT22;1510;51.072;6.678;2023-04-03T16:20:39;12.90;1.00
3001;DHT22;1510;51.072;6.678;2023-04-03T16:23:06;12.70;1.00
3001;DHT22;1510;51.072;6.678;2023-04-03T16:25:34;12.90;1.00
3001;DHT22;1510;51.072;6.678;2023-04-03T16:28:01;13.20;1.00
3001;DHT22;1510;51.072;6.678;2023-04-03T16:30:29;13.30;1.00
3001;DHT22;1510;51.072;6.678;2023-04-03T16:32:56;13.10;1.00
3001;DHT22;1510;51.072;6.678;2023-04-03T16:35:23;12.90;1.00
3001;DHT22;1510;51.072;6.678;2023-04-03T16:37:51;12.80;1.00
3001;DHT22;1510;51.072;6.678;2023-04-03T16:40:18;12.40;1.00
3001;DHT22;1510;51.072;6.678;2023-04-03T16:42:46;12.20;1.00
3001;DHT22;1510;51.072;6.678;2023-04-03T16:45:13;12.40;1.00
3001;DHT22;1510;51.072;6.678;2023-04-03T16:47:40;12.40;1.00
3001;DHT22;1510;51.072;6.678;2023-04-03T16:50:08;12.20;1.00
3001;DHT22;1510;51.072;6.678;2023-04-03T16:52:35;12.40;1.00
3001;DHT22;1510;51.072;6.678;2023-04-03T16:55:05;12.10;1.00
3001;DHT22;1510;51.072;6.678;2023-04-03T16:57:32;11.60;1.00